MSP weather

Minneapolis-St Paul International/Wold-Chamberlain Airport
Minneapolis, Minnesota, United States

Public forecast

Using degrees Fahrenheit for public forecast. Weather courtesy of forecast.io.

METAR (pilot weather report)

Retrieved 2018/12/13 03:53 UTC (11 minutes ago):

KMSP 130353Z 14007KT 4SM BR OVC007 M03/M04 A2986 RMK AO2 SLP123 T10331044

TAF (pilot weather forecast)

Forecast is more than 12 hours old.

Retrieved 2018/12/12 00:24 UTC (1 day ago):

TAF KMSP 122323Z 1300/1406 16004KT 4SM BR OVC009 FM131200 VRB03KT 1 1/2SM BR OVC005 FM131600 18005KT 6SM BR OVC009 TEMPO 1318/1322 -SHSN FM132200 28005KT P6SM BKN012 FM140100 29005KT P6SM SCT015